Time;durP1;ratioP1;P1;durP2;ratioP2;P2;SDS_P1;SDS_P2;PMS_P1;PMS_P2;Temp;Humidity;BMP_temperature;BMP_pressure;BME280_temperature;BME280_humidity;BME280_pressure;Samples;Min_cycle;Max_cycle;Signal;HPM_P1;HPM_P2
2023/02/23 00:00:32;;;;;;;16.67;11.57;;;5.50;99.90;;;;;;5035877;28;20229;-82
2023/02/23 00:03:00;;;;;;;27.15;13.70;;;5.40;1.00;;;;;;5027187;28;20669;-82
2023/02/23 00:05:29;;;;;;;19.75;12.73;;;5.40;99.90;;;;;;5028993;28;20205;-83
2023/02/23 00:07:56;;;;;;;18.48;13.35;;;5.30;99.90;;;;;;5028161;28;20225;-83
2023/02/23 00:10:29;;;;;;;25.95;12.88;;;5.40;99.90;;;;;;5028139;28;20277;-83
2023/02/23 00:12:57;;;;;;;25.67;13.32;;;5.40;99.90;;;;;;5023160;28;20639;-83
2023/02/23 00:15:25;;;;;;;24.23;11.57;;;5.40;99.90;;;;;;5028810;28;20197;-83
2023/02/23 00:17:52;;;;;;;28.08;13.10;;;5.40;99.90;;;;;;5016529;28;20303;-83
2023/02/23 00:20:24;;;;;;;27.20;14.25;;;5.30;1.00;;;;;;5019597;28;20210;-83
2023/02/23 00:22:53;;;;;;;27.35;13.30;;;5.30;99.90;;;;;;5020135;28;20248;-83
2023/02/23 00:25:20;;;;;;;19.88;12.65;;;5.50;99.90;;;;;;5022273;28;20609;-83
2023/02/23 00:27:49;;;;;;;30.20;13.65;;;5.30;99.90;;;;;;5019884;28;20221;-82
2023/02/23 00:30:17;;;;;;;23.92;13.40;;;5.30;99.90;;;;;;5024843;28;20206;-83
2023/02/23 00:32:45;;;;;;;30.40;15.00;;;5.40;99.90;;;;;;5026085;28;20209;-83
2023/02/23 00:35:16;;;;;;;27.27;13.80;;;5.30;99.90;;;;;;5027140;28;20224;-83
2023/02/23 00:37:44;;;;;;;23.10;12.50;;;5.30;99.90;;;;;;5030258;28;20256;-83
2023/02/23 00:40:13;;;;;;;24.27;13.90;;;5.30;99.90;;;;;;5026926;28;20217;-83
2023/02/23 00:42:40;;;;;;;26.45;12.85;;;5.20;99.90;;;;;;5021728;28;20276;-82
2023/02/23 00:45:11;;;;;;;30.10;13.80;;;5.20;99.90;;;;;;5020533;28;20679;-83
2023/02/23 00:47:39;;;;;;;27.00;13.82;;;5.20;99.90;;;;;;5019758;28;20221;-83
2023/02/23 00:50:07;;;;;;;28.67;13.75;;;5.20;99.90;;;;;;5020711;28;20209;-82
2023/02/23 00:52:37;;;;;;;26.88;14.20;;;5.20;99.90;;;;;;5022707;28;20564;-83
2023/02/23 00:55:05;;;;;;;25.80;14.50;;;5.60;99.90;;;;;;5020349;28;20672;-82
2023/02/23 00:57:32;;;;;;;26.63;14.18;;;5.20;99.90;;;;;;5020814;28;20711;-82
2023/02/23 00:59:58;;;;;;;25.70;13.30;;;5.10;99.90;;;;;;5026557;28;20577;-81
2023/02/23 01:02:29;;;;;;;24.65;12.48;;;5.20;1.00;;;;;;5027807;28;20276;-82
2023/02/23 01:04:56;;;;;;;19.60;14.07;;;5.20;99.90;;;;;;5028700;28;20256;-81
2023/02/23 01:07:24;;;;;;;23.85;12.65;;;4.80;1.00;;;;;;5026392;28;20232;-81
2023/02/23 01:09:51;;;;;;;31.30;14.60;;;5.10;1.00;;;;;;5024759;28;20209;-82
2023/02/23 01:12:18;;;;;;;22.42;13.68;;;5.20;1.00;;;;;;5021826;28;20230;-83
2023/02/23 01:14:46;;;;;;;21.48;12.15;;;5.20;99.90;;;;;;5020496;28;20240;-82
2023/02/23 01:17:13;;;;;;;26.13;14.23;;;5.10;1.00;;;;;;5019685;28;20298;-83
2023/02/23 01:19:41;;;;;;;32.05;14.45;;;5.10;99.90;;;;;;5019726;28;20229;-83
2023/02/23 01:22:08;;;;;;;25.45;14.50;;;5.10;1.00;;;;;;5020139;28;20230;-83
2023/02/23 01:24:37;;;;;;;27.13;14.75;;;5.10;99.90;;;;;;5020648;28;20244;-84
2023/02/23 01:27:04;;;;;;;21.27;14.18;;;5.10;1.00;;;;;;5020035;28;20218;-83
2023/02/23 01:29:31;;;;;;;33.33;16.00;;;5.10;1.00;;;;;;5019221;28;20288;-83
2023/02/23 01:31:57;;;;;;;23.83;13.40;;;5.00;99.90;;;;;;5019585;28;20200;-83
2023/02/23 01:34:24;;;;;;;28.25;15.77;;;5.00;1.00;;;;;;5021004;28;20291;-83
2023/02/23 01:36:52;;;;;;;35.90;16.48;;;5.00;1.00;;;;;;5024679;28;20221;-83
2023/02/23 01:39:21;;;;;;;25.58;14.43;;;5.10;1.00;;;;;;5024956;28;20229;-82
2023/02/23 01:41:50;;;;;;;30.02;15.07;;;5.00;1.00;;;;;;5026169;28;20240;-83
2023/02/23 01:44:54;;;;;;;24.65;15.38;;;5.00;1.00;;;;;;5027501;28;20204;-82
2023/02/23 01:47:21;;;;;;;30.55;16.10;;;5.00;1.00;;;;;;5027405;28;20252;-82
2023/02/23 01:49:49;;;;;;;31.42;15.90;;;5.00;1.00;;;;;;5025241;28;20205;-82
2023/02/23 01:52:19;;;;;;;24.13;15.13;;;5.00;1.00;;;;;;5021108;28;20280;-82
2023/02/23 01:54:50;;;;;;;27.02;13.13;;;5.00;1.00;;;;;;5020863;28;20632;-83
2023/02/23 01:57:18;;;;;;;32.00;14.25;;;5.00;1.00;;;;;;5020649;28;20287;-82
2023/02/23 01:59:47;;;;;;;28.40;15.57;;;5.10;1.00;;;;;;5028020;28;20204;-82
2023/02/23 02:02:17;;;;;;;26.00;14.95;;;4.90;1.00;;;;;;5028594;28;20209;-83
2023/02/23 02:04:45;;;;;;;26.35;13.90;;;4.90;1.00;;;;;;5033615;28;20252;-83
2023/02/23 02:07:13;;;;;;;27.90;15.57;;;4.80;1.00;;;;;;5033848;28;20224;-83
2023/02/23 02:10:38;;;;;;;28.10;14.98;;;4.80;1.00;;;;;;5034894;28;20256;-82
2023/02/23 02:12:29;;;;;;;30.55;14.75;;;4.80;1.00;;;;;;5036719;28;20212;-82
2023/02/23 02:14:56;;;;;;;30.75;14.70;;;4.80;1.00;;;;;;5037299;28;20215;-82
2023/02/23 02:17:33;;;;;;;25.70;14.70;;;4.80;1.00;;;;;;5037337;28;20719;-82
2023/02/23 02:20:49;;;;;;;17.45;13.18;;;4.90;1.00;;;;;;5036431;28;20220;-82
2023/02/23 02:24:10;;;;;;;33.38;15.85;;;4.90;1.00;;;;;;4990483;28;20213;-83
2023/02/23 02:26:50;;;;;;;29.52;15.60;;;5.10;74.50;;;;;;5029413;28;20213;-83
2023/02/23 02:29:45;;;;;;;27.40;14.70;;;4.70;1.00;;;;;;5028475;28;20273;-84
2023/02/23 02:32:46;;;;;;;28.52;14.52;;;4.70;1.00;;;;;;5027143;28;20261;-83
2023/02/23 02:35:52;;;;;;;31.17;16.23;;;4.80;1.00;;;;;;5001647;28;20214;-83
2023/02/23 02:38:33;;;;;;;27.45;14.40;;;4.20;99.90;;;;;;5022330;28;20642;-83
2023/02/23 02:41:05;;;;;;;31.27;15.27;;;4.60;1.00;;;;;;5027179;28;20253;-83
2023/02/23 02:43:45;;;;;;;25.30;15.07;;;4.50;99.90;;;;;;5027335;28;20197;-83
2023/02/23 02:46:17;;;;;;;27.15;16.48;;;4.60;99.90;;;;;;5038987;28;20172;-82
2023/02/23 02:48:51;;;;;;;29.73;15.32;;;4.60;99.90;;;;;;5039106;28;20208;-82
2023/02/23 02:51:23;;;;;;;27.42;15.77;;;4.50;99.90;;;;;;5028724;28;20205;-82
2023/02/23 02:54:05;;;;;;;26.33;14.85;;;4.40;99.90;;;;;;5027700;28;20253;-83
2023/02/23 02:56:38;;;;;;;32.58;16.70;;;4.40;99.90;;;;;;5027163;28;20189;-83
2023/02/23 04:17:54;;;;;;;28.25;15.70;;;4.30;1.00;;;;;;5041291;28;20240;-82
2023/02/23 04:20:21;;;;;;;32.47;16.20;;;4.20;99.90;;;;;;5042329;28;20309;-82
2023/02/23 04:22:48;;;;;;;25.88;15.48;;;4.20;1.00;;;;;;5040926;28;20200;-82
2023/02/23 04:25:16;;;;;;;27.63;16.88;;;4.10;1.00;;;;;;5038107;28;20205;-83
2023/02/23 04:27:43;;;;;;;30.25;15.70;;;4.20;1.00;;;;;;5035173;28;20283;-83
2023/02/23 04:30:11;;;;;;;23.90;16.00;;;4.10;1.00;;;;;;5032430;28;20267;-83
2023/02/23 04:32:38;;;;;;;27.60;15.85;;;4.10;1.00;;;;;;5032168;28;20216;-83
2023/02/23 04:35:07;;;;;;;25.27;15.70;;;4.10;1.00;;;;;;5031765;28;20217;-83
2023/02/23 04:37:34;;;;;;;32.40;17.55;;;4.20;1.00;;;;;;5041766;28;20243;-81
2023/02/23 04:40:01;;;;;;;30.83;17.10;;;4.10;1.00;;;;;;5041926;28;20215;-81
2023/02/23 04:42:28;;;;;;;34.33;17.48;;;4.20;1.00;;;;;;5042086;28;20200;-81
2023/02/23 04:44:55;;;;;;;27.67;16.50;;;4.10;1.00;;;;;;5024604;28;20244;-82
2023/02/23 04:47:22;;;;;;;31.42;18.67;;;4.00;1.00;;;;;;5024420;28;20784;-81
2023/02/23 04:49:49;;;;;;;36.05;17.98;;;4.00;1.00;;;;;;5024238;28;20216;-82
2023/02/23 04:52:17;;;;;;;27.20;16.85;;;4.00;1.00;;;;;;5024822;28;20675;-82
2023/02/23 04:54:44;;;;;;;29.00;17.05;;;4.00;1.00;;;;;;5024714;28;20200;-82
2023/02/23 04:57:11;;;;;;;29.33;16.50;;;4.00;1.00;;;;;;5027077;28;20287;-83
2023/02/23 04:59:38;;;;;;;28.38;15.35;;;4.20;1.00;;;;;;5026889;28;20205;-83
2023/02/23 05:02:05;;;;;;;30.02;17.90;;;4.00;1.00;;;;;;5027273;28;20550;-83
2023/02/23 05:04:34;;;;;;;29.58;15.63;;;4.00;1.00;;;;;;5026998;28;20209;-83
2023/02/23 05:07:02;;;;;;;35.30;17.42;;;3.90;1.00;;;;;;5028021;28;20292;-83
2023/02/23 05:09:30;;;;;;;31.17;18.75;;;3.70;1.00;;;;;;5029841;28;20201;-83
2023/02/23 05:11:57;;;;;;;29.30;16.00;;;3.90;1.00;;;;;;5028830;28;20269;-83
2023/02/23 05:14:24;;;;;;;27.38;18.10;;;3.90;1.00;;;;;;5028039;28;20586;-83
2023/02/23 05:16:51;;;;;;;35.30;15.73;;;3.80;1.00;;;;;;5027466;28;20296;-83
2023/02/23 05:19:18;;;;;;;27.15;15.85;;;3.80;1.00;;;;;;5028678;28;20225;-84
2023/02/23 05:21:45;;;;;;;31.08;16.42;;;3.80;1.00;;;;;;5028219;28;20200;-84
2023/02/23 05:24:12;;;;;;;29.42;18.00;;;3.90;1.00;;;;;;5037414;28;20192;-83
2023/02/23 05:26:40;;;;;;;32.42;17.23;;;3.80;1.00;;;;;;5038960;28;20233;-82
2023/02/23 05:29:07;;;;;;;34.85;17.25;;;3.80;1.00;;;;;;5028814;28;20264;-83
2023/02/23 05:31:33;;;;;;;32.42;18.50;;;3.80;1.00;;;;;;5029322;28;20304;-83
2023/02/23 05:34:00;;;;;;;29.05;17.65;;;3.80;1.00;;;;;;5029671;28;20224;-83
2023/02/23 05:36:28;;;;;;;28.48;16.63;;;2.80;1.00;;;;;;5029611;28;20232;-81
2023/02/23 05:38:55;;;;;;;35.47;17.30;;;3.70;1.00;;;;;;5029685;28;20747;-82
2023/02/23 05:41:23;;;;;;;33.58;18.92;;;3.60;1.00;;;;;;5030397;28;20205;-83
2023/02/23 05:43:52;;;;;;;31.73;18.80;;;3.60;1.00;;;;;;5030420;28;20240;-83
2023/02/23 05:46:21;;;;;;;26.40;15.82;;;3.60;1.00;;;;;;5030372;28;20240;-83
2023/02/23 05:48:48;;;;;;;29.60;16.38;;;3.50;1.00;;;;;;5030316;28;20277;-83
2023/02/23 05:51:16;;;;;;;32.50;19.13;;;3.40;99.90;;;;;;5034739;28;20221;-83
2023/02/23 05:53:43;;;;;;;29.13;16.73;;;3.60;1.00;;;;;;5039608;28;20248;-83
2023/02/23 05:56:17;;;;;;;28.95;17.38;;;3.70;99.90;;;;;;5039401;28;20199;-83
2023/02/23 05:58:44;;;;;;;29.35;16.55;;;3.60;1.00;;;;;;5030351;28;20248;-83
2023/02/23 06:01:12;;;;;;;36.53;17.83;;;3.60;1.00;;;;;;5030921;28;20204;-82
2023/02/23 06:03:39;;;;;;;31.00;18.00;;;3.50;1.00;;;;;;5031089;28;20212;-82
2023/02/23 06:06:06;;;;;;;36.25;18.17;;;3.50;1.00;;;;;;5030469;28;20238;-83
2023/02/23 06:08:33;;;;;;;22.90;16.02;;;3.50;1.00;;;;;;5030263;28;20307;-83
2023/02/23 06:11:00;;;;;;;31.50;16.92;;;3.50;1.00;;;;;;5030034;28;20236;-83
2023/02/23 06:13:27;;;;;;;34.30;17.55;;;3.50;99.90;;;;;;5039804;28;20197;-83
2023/02/23 06:15:54;;;;;;;33.38;17.15;;;;;;;;;;5039952;28;20224;-82
2023/02/23 06:18:23;;;;;;;33.88;17.38;;;3.40;1.00;;;;;;5039139;28;20219;-82
2023/02/23 06:20:49;;;;;;;31.45;16.75;;;3.90;1.00;;;;;;5031063;28;20259;-83
2023/02/23 06:23:16;;;;;;;30.98;16.90;;;3.40;1.00;;;;;;5031014;28;20209;-82
2023/02/23 06:25:44;;;;;;;28.88;16.58;;;3.40;99.90;;;;;;5033809;28;20232;-82
2023/02/23 06:28:11;;;;;;;37.60;16.77;;;3.50;1.00;;;;;;5035314;28;20232;-83
2023/02/23 06:30:39;;;;;;;32.75;16.48;;;3.60;1.00;;;;;;5029313;28;20208;-83
2023/02/23 06:33:06;;;;;;;38.25;17.05;;;3.40;1.00;;;;;;5028585;28;20238;-83
2023/02/23 06:35:34;;;;;;;45.67;17.27;;;3.50;1.00;;;;;;5027925;28;20208;-83
2023/02/23 06:38:02;;;;;;;29.85;17.73;;;3.50;1.00;;;;;;5028122;28;20225;-83
2023/02/23 06:40:29;;;;;;;29.75;17.83;;;3.50;1.00;;;;;;5028668;28;20276;-83
2023/02/23 06:42:56;;;;;;;28.88;17.17;;;3.50;1.00;;;;;;5027507;28;20206;-83
2023/02/23 06:45:23;;;;;;;25.70;17.17;;;3.60;1.00;;;;;;5035881;28;20193;-83
2023/02/23 06:47:51;;;;;;;33.88;18.65;;;3.60;1.00;;;;;;5036429;28;20341;-82
2023/02/23 06:50:18;;;;;;;31.88;18.35;;;3.60;1.00;;;;;;5036490;28;20209;-82
2023/02/23 06:52:47;;;;;;;30.90;20.30;;;3.40;1.00;;;;;;5030871;28;20205;-83
2023/02/23 06:55:14;;;;;;;41.42;23.52;;;3.70;1.00;;;;;;5028374;28;20209;-83
2023/02/23 06:57:41;;;;;;;39.40;20.38;;;3.70;1.00;;;;;;5027117;28;20232;-83
2023/02/23 07:00:10;;;;;;;35.17;19.00;;;3.80;1.00;;;;;;5027068;28;20256;-82
2023/02/23 07:02:37;;;;;;;34.95;20.02;;;3.70;1.00;;;;;;5027616;28;20224;-82
2023/02/23 07:05:04;;;;;;;34.60;19.92;;;3.70;1.00;;;;;;5027661;28;20205;-83
2023/02/23 07:07:31;;;;;;;33.40;20.02;;;3.80;1.00;;;;;;5027318;28;20235;-82
2023/02/23 07:10:00;;;;;;;31.63;18.63;;;3.80;1.00;;;;;;5027785;28;20208;-83
2023/02/23 07:12:27;;;;;;;33.38;17.95;;;3.80;1.00;;;;;;5030858;28;20209;-82
2023/02/23 07:14:53;;;;;;;30.42;17.90;;;3.50;1.00;;;;;;5031104;28;20240;-82
2023/02/23 07:17:20;;;;;;;33.70;16.52;;;3.80;1.00;;;;;;5030875;28;20225;-82
2023/02/23 07:19:47;;;;;;;29.95;17.95;;;3.60;1.00;;;;;;5029032;28;20311;-82
2023/02/23 07:22:14;;;;;;;30.45;16.20;;;3.70;1.00;;;;;;5027930;28;20287;-83
2023/02/23 07:24:41;;;;;;;36.47;18.77;;;5.40;1.00;;;;;;5028516;28;20270;-82
2023/02/23 07:27:09;;;;;;;27.70;17.92;;;4.00;99.90;;;;;;5027713;28;20315;-82
2023/02/23 07:29:36;;;;;;;35.63;17.95;;;3.70;1.00;;;;;;5030594;28;20210;-82
2023/02/23 07:32:03;;;;;;;23.20;16.08;;;3.90;1.00;;;;;;5030845;28;20291;-82
2023/02/23 07:34:30;;;;;;;35.38;18.35;;;3.90;1.00;;;;;;5024167;28;20214;-82
2023/02/23 07:36:56;;;;;;;33.63;17.17;;;4.00;1.00;;;;;;5022289;28;20846;-83
2023/02/23 07:39:24;;;;;;;34.72;18.05;;;4.20;1.00;;;;;;5026631;28;20232;-83
2023/02/23 07:41:51;;;;;;;25.63;17.30;;;4.20;99.90;;;;;;5027590;28;20205;-83
2023/02/23 07:44:19;;;;;;;27.33;15.50;;;4.20;99.90;;;;;;5026901;28;20664;-83
2023/02/23 07:46:46;;;;;;;29.58;18.00;;;4.10;99.90;;;;;;5027427;28;20296;-83
2023/02/23 07:49:13;;;;;;;28.42;17.13;;;4.10;1.00;;;;;;5028012;28;20237;-83
2023/02/23 07:51:41;;;;;;;28.02;17.75;;;4.20;1.00;;;;;;5033977;28;20199;-83
2023/02/23 07:54:08;;;;;;;27.23;16.33;;;4.30;99.90;;;;;;5034357;28;20232;-83
2023/02/23 07:56:35;;;;;;;25.73;15.65;;;4.30;99.90;;;;;;5034061;28;20213;-83
2023/02/23 07:59:02;;;;;;;24.27;15.45;;;4.30;99.90;;;;;;5033342;28;20274;-83
2023/02/23 08:01:30;;;;;;;29.23;18.63;;;4.30;99.90;;;;;;5032897;28;20236;-82
2023/02/23 08:03:57;;;;;;;34.78;15.52;;;4.70;99.90;;;;;;5027593;28;20219;-84
2023/02/23 08:06:24;;;;;;;26.65;17.77;;;4.30;99.90;;;;;;5026889;28;20213;-84
2023/02/23 08:08:51;;;;;;;31.20;15.95;;;4.30;99.90;;;;;;5026777;28;20670;-83
2023/02/23 08:11:18;;;;;;;36.17;17.00;;;4.50;99.90;;;;;;5027609;28;20296;-84
2023/02/23 08:13:44;;;;;;;36.00;19.35;;;4.50;99.90;;;;;;5027942;28;20687;-85
2023/02/23 08:16:11;;;;;;;29.98;17.60;;;4.40;99.90;;;;;;5030060;28;20273;-84
2023/02/23 08:18:40;;;;;;;29.75;17.05;;;4.70;99.90;;;;;;5036062;28;20260;-82
2023/02/23 08:21:06;;;;;;;27.83;16.77;;;4.50;99.90;;;;;;5038394;28;20178;-82
2023/02/23 08:23:34;;;;;;;30.60;17.83;;;4.60;95.10;;;;;;5037980;28;20178;-82
2023/02/23 08:26:02;;;;;;;28.92;16.15;;;4.50;99.90;;;;;;5035677;28;20204;-83
2023/02/23 08:28:30;;;;;;;30.88;15.57;;;4.60;99.90;;;;;;5030505;28;20235;-83
2023/02/23 08:30:58;;;;;;;35.85;18.65;;;4.70;99.90;;;;;;5023598;28;20268;-83
2023/02/23 08:33:25;;;;;;;36.13;18.67;;;4.80;27.10;;;;;;5024751;28;20216;-84
2023/02/23 08:35:53;;;;;;;34.90;18.05;;;4.80;1.00;;;;;;5024968;28;20264;-84
2023/02/23 08:38:20;;;;;;;34.70;17.67;;;4.80;1.00;;;;;;5037935;28;20223;-84
2023/02/23 08:40:47;;;;;;;33.95;17.92;;;4.70;55.30;;;;;;5039144;28;20296;-84
2023/02/23 08:43:14;;;;;;;27.30;15.52;;;4.70;27.80;;;;;;5035466;28;20267;-84
2023/02/23 08:45:40;;;;;;;29.92;16.00;;;5.00;1.00;;;;;;5036466;28;20272;-85
2023/02/23 08:48:07;;;;;;;31.08;16.00;;;5.40;1.00;;;;;;5025549;28;20364;-84
2023/02/23 08:50:34;;;;;;;29.55;18.08;;;5.10;99.90;;;;;;5025215;28;20202;-84
2023/02/23 08:53:03;;;;;;;31.23;17.10;;;5.30;1.00;;;;;;5024614;28;20642;-84
2023/02/23 08:55:29;;;;;;;29.42;16.60;;;5.20;99.90;;;;;;5027472;28;20714;-84
2023/02/23 08:57:57;;;;;;;25.75;16.52;;;5.20;99.90;;;;;;5033370;28;20236;-83
2023/02/23 09:00:24;;;;;;;32.22;15.85;;;5.20;99.90;;;;;;5032587;28;20225;-84
2023/02/23 09:02:51;;;;;;;33.90;17.13;;;5.50;1.00;;;;;;5025200;28;20292;-85
2023/02/23 09:05:18;;;;;;;31.33;16.88;;;5.30;99.90;;;;;;5022385;28;20209;-84
2023/02/23 09:07:46;;;;;;;52.40;24.52;;;5.40;99.90;;;;;;5030533;28;20244;-84
2023/02/23 09:10:18;;;;;;;24.88;16.00;;;5.40;99.90;;;;;;5040953;28;20190;-84
2023/02/23 09:12:45;;;;;;;24.88;16.05;;;5.50;1.00;;;;;;5036609;28;20197;-84
2023/02/23 09:15:12;;;;;;;26.73;16.60;;;5.50;22.40;;;;;;5040591;28;20244;-83
2023/02/23 09:17:41;;;;;;;28.95;17.60;;;5.50;99.90;;;;;;5039923;28;20285;-83
2023/02/23 09:20:12;;;;;;;37.00;17.27;;;5.50;1.00;;;;;;5039885;28;20206;-83
2023/02/23 09:22:39;;;;;;;28.17;16.80;;;5.60;99.90;;;;;;5035882;28;20217;-83
2023/02/23 09:25:07;;;;;;;26.02;16.38;;;5.70;99.90;;;;;;5024493;28;20209;-85
2023/02/23 09:27:36;;;;;;;24.77;15.40;;;5.60;1.00;;;;;;5032601;28;20224;-84
2023/02/23 09:30:04;;;;;;;31.27;16.65;;;5.80;99.90;;;;;;5039786;28;20198;-83
2023/02/23 09:32:31;;;;;;;28.63;17.38;;;5.80;99.90;;;;;;5039636;28;20218;-83
2023/02/23 09:34:58;;;;;;;33.17;18.27;;;5.90;99.90;;;;;;5039242;28;20252;-82
2023/02/23 09:37:25;;;;;;;28.50;15.65;;;5.90;99.90;;;;;;5038615;28;20209;-83
2023/02/23 09:39:52;;;;;;;30.35;16.63;;;6.20;1.00;;;;;;5039183;28;20277;-84
2023/02/23 09:42:39;;;;;;;28.70;18.60;;;5.80;1.00;;;;;;5039238;28;20209;-84
2023/02/23 09:45:15;;;;;;;31.25;19.80;;;6.40;99.90;;;;;;5035354;28;20178;-84
2023/02/23 09:47:53;;;;;;;35.10;18.30;;;6.20;99.80;;;;;;5039086;28;20285;-83
2023/02/23 09:50:22;;;;;;;31.27;18.23;;;6.20;1.00;;;;;;5038873;28;20223;-84
2023/02/23 09:52:57;;;;;;;41.95;25.17;;;6.30;1.00;;;;;;5030006;28;20207;-84
2023/02/23 09:55:26;;;;;;;31.35;17.10;;;6.40;99.90;;;;;;5026948;28;20240;-83
2023/02/23 09:57:56;;;;;;;28.70;17.33;;;6.50;99.90;;;;;;5022567;28;20255;-83
2023/02/23 10:00:26;;;;;;;30.35;17.00;;;6.40;1.80;;;;;;5022179;28;20232;-83
2023/02/23 10:03:09;;;;;;;32.60;19.15;;;6.70;1.00;;;;;;5022872;28;20195;-83
2023/02/23 10:05:42;;;;;;;23.95;17.02;;;6.80;1.00;;;;;;5022852;28;20293;-84
2023/02/23 10:08:21;;;;;;;30.67;17.48;;;6.90;1.00;;;;;;5022715;28;20234;-84
2023/02/23 10:10:53;;;;;;;33.72;17.35;;;6.90;1.00;;;;;;5022358;28;20197;-84
2023/02/23 10:13:29;;;;;;;27.77;17.58;;;7.10;99.90;;;;;;5021383;28;20197;-83
2023/02/23 10:16:02;;;;;;;30.40;19.15;;;7.10;99.90;;;;;;5023202;28;20208;-83
2023/02/23 10:18:38;;;;;;;28.73;16.80;;;7.60;1.00;;;;;;5021069;28;20321;-84
2023/02/23 10:21:10;;;;;;;32.77;16.50;;;7.30;99.90;;;;;;5021023;28;20213;-84
2023/02/23 10:23:42;;;;;;;26.37;17.03;;;7.20;99.90;;;;;;5033285;28;20499;-83
2023/02/23 10:26:16;;;;;;;28.20;17.50;;;7.30;99.90;;;;;;5034715;28;20439;-83
2023/02/23 10:28:44;;;;;;;36.17;17.20;;;7.90;99.90;;;;;;5028950;28;20260;-83
2023/02/23 10:31:26;;;;;;;27.03;17.47;;;7.70;99.90;;;;;;5020680;28;20947;-83
2023/02/23 10:33:56;;;;;;;31.33;18.87;;;7.80;99.90;;;;;;5020888;28;20445;-84
2023/02/23 10:36:33;;;;;;;28.87;18.63;;;7.90;99.90;;;;;;5022386;28;20418;-84
2023/02/23 10:39:00;;;;;;;33.83;20.00;;;8.00;99.90;;;;;;5023306;28;20438;-84
2023/02/23 10:41:27;;;;;;;26.30;17.90;;;8.10;99.90;;;;;;5027374;28;20416;-84
2023/02/23 10:43:55;;;;;;;27.10;18.23;;;8.20;99.90;;;;;;5027220;28;20428;-84
2023/02/23 10:46:26;;;;;;;34.67;18.67;;;8.90;99.90;;;;;;5036861;28;20446;-83
2023/02/23 10:48:55;;;;;;;29.77;18.40;;;8.60;99.90;;;;;;5039169;28;20489;-84
2023/02/23 10:51:28;;;;;;;28.97;16.97;;;8.60;29.40;;;;;;5038353;28;20452;-84
2023/02/23 10:53:54;;;;;;;31.93;21.90;;;8.70;99.90;;;;;;5037613;28;20436;-84
2023/02/23 10:56:23;;;;;;;32.07;19.13;;;8.80;1.00;;;;;;5026409;28;20445;-83
2023/02/23 10:58:52;;;;;;;31.33;19.57;;;8.60;90.20;;;;;;5021051;28;20558;-84
2023/02/23 11:01:37;;;;;;;32.17;18.20;;;8.70;99.90;;;;;;5017473;28;20523;-84
2023/02/23 11:04:15;;;;;;;26.43;17.10;;;8.80;99.90;;;;;;5017802;28;20894;-84
2023/02/23 11:06:43;;;;;;;26.70;17.80;;;9.10;99.90;;;;;;5019016;28;20412;-85
2023/02/23 11:09:28;;;;;;;32.53;19.70;;;9.10;1.00;;;;;;5019251;28;20490;-84
2023/02/23 11:12:01;;;;;;;29.00;18.60;;;9.10;1.00;;;;;;5020503;28;20555;-83
2023/02/23 11:14:30;;;;;;;28.37;17.80;;;9.10;1.00;;;;;;5019032;28;20439;-84
2023/02/23 11:17:00;;;;;;;31.40;18.40;;;9.30;99.90;;;;;;5017230;28;20473;-84
2023/02/23 11:19:33;;;;;;;29.27;18.53;;;9.30;1.00;;;;;;5017843;28;20812;-84
2023/02/23 11:22:01;;;;;;;32.43;20.07;;;9.40;1.00;;;;;;5016206;28;20998;-85
2023/02/23 11:24:30;;;;;;;31.63;20.00;;;9.40;1.00;;;;;;5019049;28;20490;-83
2023/02/23 11:27:02;;;;;;;28.87;17.50;;;9.70;99.90;;;;;;5025735;28;20455;-84
2023/02/23 11:29:34;;;;;;;35.67;19.47;;;9.50;1.00;;;;;;5022337;28;20439;-84
2023/02/23 11:32:07;;;;;;;33.30;19.53;;;9.50;1.00;;;;;;5022185;28;20416;-82
2023/02/23 11:34:39;;;;;;;31.53;19.30;;;9.30;1.00;;;;;;5022189;28;20490;-80
2023/02/23 11:37:18;;;;;;;30.70;20.40;;;9.30;1.00;;;;;;5020105;28;20501;-84
2023/02/23 11:39:52;;;;;;;32.13;19.17;;;9.60;1.00;;;;;;5022633;28;20519;-83
2023/02/23 11:42:22;;;;;;;32.40;20.40;;;9.40;1.00;;;;;;5023551;28;20508;-83
2023/02/23 11:45:01;;;;;;;34.17;19.77;;;9.40;1.00;;;;;;5024248;28;20477;-84
2023/02/23 11:47:31;;;;;;;30.70;19.63;;;9.50;1.00;;;;;;5034504;28;20478;-82
2023/02/23 11:49:59;;;;;;;33.53;19.53;;;9.90;1.00;;;;;;5035825;28;20468;-82
2023/02/23 11:52:27;;;;;;;34.13;22.63;;;9.70;1.00;;;;;;5038032;28;20432;-82
2023/02/23 11:54:57;;;;;;;31.67;19.20;;;10.00;1.00;;;;;;5030149;28;20487;-83
2023/02/23 11:57:27;;;;;;;31.03;21.57;;;9.80;1.00;;;;;;5024474;28;20539;-83
2023/02/23 11:59:56;;;;;;;33.07;21.30;;;9.90;1.00;;;;;;5025708;28;20473;-82
2023/02/23 12:02:25;;;;;;;39.23;23.47;;;10.10;1.00;;;;;;5017775;28;20446;-82
2023/02/23 12:05:02;;;;;;;29.70;19.20;;;10.20;1.00;;;;;;5019727;28;20873;-82
2023/02/23 12:07:41;;;;;;;37.10;20.50;;;10.30;99.90;;;;;;5022514;28;20442;-82
2023/02/23 12:10:16;;;;;;;36.93;20.80;;;10.10;1.00;;;;;;5023118;28;20424;-82
2023/02/23 12:12:50;;;;;;;29.03;19.87;;;10.30;99.90;;;;;;5025131;28;20478;-82
2023/02/23 12:15:27;;;;;;;38.17;19.67;;;10.60;99.90;;;;;;5028311;28;20473;-82
2023/02/23 12:17:58;;;;;;;32.40;20.50;;;10.60;99.90;;;;;;5032392;28;20469;-82
2023/02/23 12:20:30;;;;;;;31.63;21.00;;;10.80;99.90;;;;;;5034157;28;20476;-81
2023/02/23 12:23:02;;;;;;;27.10;20.63;;;10.70;1.00;;;;;;5033855;28;20469;-82
2023/02/23 12:25:36;;;;;;;30.10;20.20;;;10.80;99.90;;;;;;5037415;28;20425;-82
2023/02/23 12:28:10;;;;;;;31.33;19.90;;;10.80;99.90;;;;;;5037637;28;20901;-81
2023/02/23 12:30:43;;;;;;;33.33;21.63;;;11.00;99.90;;;;;;5035642;28;20405;-82
2023/02/23 12:33:15;;;;;;;33.43;20.97;;;10.80;99.90;;;;;;5029790;28;20429;-82
2023/02/23 12:35:49;;;;;;;29.17;19.70;;;10.80;99.90;;;;;;5029327;28;20408;-82
2023/02/23 12:38:26;;;;;;;31.30;18.90;;;10.70;99.90;;;;;;5029166;28;20500;-83
2023/02/23 12:41:01;;;;;;;30.57;21.50;;;10.70;99.90;;;;;;5028947;28;20576;-82
2023/02/23 12:43:36;;;;;;;36.67;21.40;;;10.60;99.90;;;;;;5029502;28;20437;-82
2023/02/23 12:46:11;;;;;;;33.03;21.03;;;10.70;99.90;;;;;;5032565;28;20505;-82
2023/02/23 12:48:46;;;;;;;29.37;19.20;;;10.80;1.00;;;;;;5033442;28;20480;-81
2023/02/23 12:51:24;;;;;;;32.27;19.80;;;10.80;99.90;;;;;;5031007;28;20487;-82
2023/02/23 12:53:51;;;;;;;31.67;20.30;;;10.60;99.90;;;;;;5030919;28;20464;-83
2023/02/23 12:56:45;;;;;;;38.87;20.30;;;10.70;99.90;;;;;;5032439;28;20448;-83
2023/02/23 12:59:24;;;;;;;26.40;18.57;;;10.60;1.00;;;;;;5030578;28;20464;-82
2023/02/23 13:01:55;;;;;;;39.63;22.30;;;10.90;99.90;;;;;;5034001;28;20464;-83
2023/02/23 13:04:32;;;;;;;31.67;19.03;;;10.80;99.90;;;;;;5039114;28;20477;-81
2023/02/23 13:07:10;;;;;;;31.03;19.40;;;10.60;99.90;;;;;;5040966;28;20486;-81
2023/02/23 13:09:49;;;;;;;31.77;18.63;;;10.70;99.90;;;;;;5039482;28;20431;-82
2023/02/23 13:12:29;;;;;;;26.43;19.40;;;10.80;99.90;;;;;;5030415;28;20439;-82
2023/02/23 13:15:02;;;;;;;35.83;21.23;;;10.70;1.00;;;;;;5030517;28;20469;-82
2023/02/23 13:17:38;;;;;;;33.50;20.43;;;10.90;99.90;;;;;;5030812;28;20465;-83
2023/02/23 13:20:16;;;;;;;34.53;22.50;;;10.90;99.90;;;;;;5031708;28;20436;-82
2023/02/23 13:22:49;;;;;;;30.27;19.10;;;10.90;99.90;;;;;;5030311;28;20458;-82
2023/02/23 13:25:41;;;;;;;27.03;19.57;;;11.00;99.90;;;;;;5029926;28;20487;-82
2023/02/23 13:28:15;;;;;;;32.40;20.77;;;11.30;99.90;;;;;;5030907;28;20542;-82
2023/02/23 13:30:46;;;;;;;53.67;23.40;;;11.20;99.90;;;;;;5028572;28;20439;-83
2023/02/23 13:33:22;;;;;;;28.87;21.20;;;11.30;1.00;;;;;;5029716;28;20808;-82
2023/02/23 13:35:49;;;;;;;35.60;21.53;;;11.30;99.90;;;;;;5030219;28;20415;-84
2023/02/23 13:38:23;;;;;;;28.57;18.90;;;11.10;99.90;;;;;;5032242;28;20444;-82
2023/02/23 13:40:59;;;;;;;28.10;19.50;;;11.10;1.00;;;;;;5034713;28;20452;-81
2023/02/23 13:43:32;;;;;;;36.33;21.07;;;10.90;1.00;;;;;;5035593;28;20425;-82
2023/02/23 13:46:23;;;;;;;36.57;21.00;;;10.90;1.00;;;;;;5032146;28;20438;-81
2023/02/23 13:48:57;;;;;;;35.33;22.17;;;10.90;1.00;;;;;;5031313;28;20653;-83
2023/02/23 13:51:32;;;;;;;27.47;18.77;;;10.90;1.00;;;;;;5032538;28;20458;-82
2023/02/23 13:54:04;;;;;;;33.60;19.83;;;10.90;1.00;;;;;;5040141;28;20426;-82
2023/02/23 13:56:37;;;;;;;30.07;18.90;;;10.90;1.00;;;;;;5039806;28;20460;-82
2023/02/23 13:59:08;;;;;;;32.00;20.50;;;10.80;1.00;;;;;;5048857;22;20497;-79
2023/02/23 14:01:38;;;;;;;30.13;20.13;;;10.80;99.90;;;;;;5020267;28;20474;-80
2023/02/23 14:04:12;;;;;;;34.80;20.27;;;10.60;15.60;;;;;;5021545;28;20439;-81
2023/02/23 14:06:49;;;;;;;34.20;20.73;;;10.80;99.90;;;;;;5020941;28;20451;-80
2023/02/23 14:09:22;;;;;;;33.20;21.53;;;10.90;99.90;;;;;;5022195;28;20463;-81
2023/02/23 14:11:50;;;;;;;31.23;20.40;;;10.80;1.00;;;;;;5020930;28;20495;-80
2023/02/23 14:14:43;;;;;;;33.83;21.83;;;10.80;99.90;;;;;;5018622;28;20463;-79
2023/02/23 14:17:29;;;;;;;34.07;22.47;;;10.80;99.90;;;;;;5006748;28;20448;-79